sensor_id;sensor_type;location;lat;lon;timestamp;P1;P2;P0
46044;PMS7003;31781;54.094;13.428;2023-02-28T00:00:53;1.25;1.25;1.00
46044;PMS7003;31781;54.094;13.428;2023-02-28T00:02:56;4.25;4.25;3.50
46044;PMS7003;31781;54.094;13.428;2023-02-28T00:04:58;1.00;1.00;1.00
46044;PMS7003;31781;54.094;13.428;2023-02-28T00:06:59;2.25;2.25;1.00
46044;PMS7003;31781;54.094;13.428;2023-02-28T00:09:01;3.75;3.50;2.25
46044;PMS7003;31781;54.094;13.428;2023-02-28T00:11:04;1.00;1.00;1.00
46044;PMS7003;31781;54.094;13.428;2023-02-28T00:13:07;2.25;2.25;1.25
46044;PMS7003;31781;54.094;13.428;2023-02-28T00:15:10;0.50;0.50;0.50
46044;PMS7003;31781;54.094;13.428;2023-02-28T00:17:12;3.75;1.75;1.50
46044;PMS7003;31781;54.094;13.428;2023-02-28T00:19:15;3.75;3.75;1.75
46044;PMS7003;31781;54.094;13.428;2023-02-28T00:21:17;3.00;3.00;1.00
46044;PMS7003;31781;54.094;13.428;2023-02-28T00:23:20;2.75;2.75;2.00
46044;PMS7003;31781;54.094;13.428;2023-02-28T00:25:22;1.00;1.00;1.00
46044;PMS7003;31781;54.094;13.428;2023-02-28T00:27:25;2.50;2.50;1.00
46044;PMS7003;31781;54.094;13.428;2023-02-28T00:29:26;1.00;1.00;0.25
46044;PMS7003;31781;54.094;13.428;2023-02-28T00:31:28;1.00;1.00;1.00
46044;PMS7003;31781;54.094;13.428;2023-02-28T00:33:30;1.50;1.50;1.25
46044;PMS7003;31781;54.094;13.428;2023-02-28T00:35:33;1.50;1.50;1.00
46044;PMS7003;31781;54.094;13.428;2023-02-28T00:37:35;6.50;4.00;3.00
46044;PMS7003;31781;54.094;13.428;2023-02-28T00:39:37;0.75;0.75;0.00
46044;PMS7003;31781;54.094;13.428;2023-02-28T00:41:40;2.25;2.25;1.00
46044;PMS7003;31781;54.094;13.428;2023-02-28T00:43:41;3.50;3.50;1.75
46044;PMS7003;31781;54.094;13.428;2023-02-28T00:45:43;0.00;0.00;0.00
46044;PMS7003;31781;54.094;13.428;2023-02-28T00:47:45;1.25;1.25;1.00
46044;PMS7003;31781;54.094;13.428;2023-02-28T00:49:47;1.00;1.00;1.00
46044;PMS7003;31781;54.094;13.428;2023-02-28T00:51:50;3.25;1.75;0.75
46044;PMS7003;31781;54.094;13.428;2023-02-28T00:53:52;1.00;1.00;1.00
46044;PMS7003;31781;54.094;13.428;2023-02-28T00:55:54;2.00;2.00;1.00
46044;PMS7003;31781;54.094;13.428;2023-02-28T00:57:56;1.00;1.00;0.75
46044;PMS7003;31781;54.094;13.428;2023-02-28T00:59:58;7.00;3.00;1.00
46044;PMS7003;31781;54.094;13.428;2023-02-28T01:01:59;1.50;1.50;1.50
46044;PMS7003;31781;54.094;13.428;2023-02-28T01:04:01;1.75;1.75;1.00
46044;PMS7003;31781;54.094;13.428;2023-02-28T01:06:03;3.00;3.00;1.00
46044;PMS7003;31781;54.094;13.428;2023-02-28T01:08:06;1.00;1.00;1.00
46044;PMS7003;31781;54.094;13.428;2023-02-28T01:10:09;1.25;1.25;1.00
46044;PMS7003;31781;54.094;13.428;2023-02-28T01:12:12;0.75;0.75;0.50
46044;PMS7003;31781;54.094;13.428;2023-02-28T01:14:15;1.00;1.00;1.00
46044;PMS7003;31781;54.094;13.428;2023-02-28T01:16:18;1.00;1.00;1.00
46044;PMS7003;31781;54.094;13.428;2023-02-28T01:18:20;0.75;0.75;0.50
46044;PMS7003;31781;54.094;13.428;2023-02-28T01:20:23;1.25;1.25;1.00
46044;PMS7003;31781;54.094;13.428;2023-02-28T01:22:25;1.50;1.50;1.00
46044;PMS7003;31781;54.094;13.428;2023-02-28T01:24:28;1.00;1.00;0.00
46044;PMS7003;31781;54.094;13.428;2023-02-28T01:26:30;1.25;1.00;1.00
46044;PMS7003;31781;54.094;13.428;2023-02-28T01:28:32;3.00;3.00;1.00
46044;PMS7003;31781;54.094;13.428;2023-02-28T01:30:34;2.25;2.25;2.25
46044;PMS7003;31781;54.094;13.428;2023-02-28T01:32:36;2.75;1.00;1.00
46044;PMS7003;31781;54.094;13.428;2023-02-28T01:34:38;1.00;1.00;1.00
46044;PMS7003;31781;54.094;13.428;2023-02-28T01:36:39;1.00;1.00;1.00
46044;PMS7003;31781;54.094;13.428;2023-02-28T01:38:41;2.75;1.00;1.00
46044;PMS7003;31781;54.094;13.428;2023-02-28T01:40:47;3.00;1.00;1.00
46044;PMS7003;31781;54.094;13.428;2023-02-28T01:42:49;2.50;2.50;1.00
46044;PMS7003;31781;54.094;13.428;2023-02-28T01:44:55;1.00;1.00;0.00
46044;PMS7003;31781;54.094;13.428;2023-02-28T01:47:00;6.25;6.00;4.50
46044;PMS7003;31781;54.094;13.428;2023-02-28T01:49:03;7.00;6.00;4.00
46044;PMS7003;31781;54.094;13.428;2023-02-28T01:51:10;7.00;3.25;3.25
46044;PMS7003;31781;54.094;13.428;2023-02-28T01:53:16;8.25;6.50;4.00
46044;PMS7003;31781;54.094;13.428;2023-02-28T01:55:23;4.00;4.00;3.25
46044;PMS7003;31781;54.094;13.428;2023-02-28T01:57:29;7.50;6.00;3.75
46044;PMS7003;31781;54.094;13.428;2023-02-28T01:59:36;4.50;4.00;3.75
46044;PMS7003;31781;54.094;13.428;2023-02-28T02:01:42;3.25;3.25;2.50
46044;PMS7003;31781;54.094;13.428;2023-02-28T02:03:44;3.00;3.00;1.00
46044;PMS7003;31781;54.094;13.428;2023-02-28T02:05:46;7.00;3.00;1.00
46044;PMS7003;31781;54.094;13.428;2023-02-28T02:07:48;5.00;3.25;3.00
46044;PMS7003;31781;54.094;13.428;2023-02-28T02:09:59;3.00;3.00;3.00
46044;PMS7003;31781;54.094;13.428;2023-02-28T02:12:03;3.50;3.50;3.50
46044;PMS7003;31781;54.094;13.428;2023-02-28T02:16:49;3.00;3.00;1.00
46044;PMS7003;31781;54.094;13.428;2023-02-28T02:19:03;5.25;3.25;2.00
46044;PMS7003;31781;54.094;13.428;2023-02-28T02:21:23;4.50;3.00;3.00
46044;PMS7003;31781;54.094;13.428;2023-02-28T02:23:51;3.00;3.00;3.00
46044;PMS7003;31781;54.094;13.428;2023-02-28T02:26:09;2.00;2.00;1.00
46044;PMS7003;31781;54.094;13.428;2023-02-28T02:28:42;3.00;3.00;1.00
46044;PMS7003;31781;54.094;13.428;2023-02-28T02:31:09;4.00;3.00;3.00
46044;PMS7003;31781;54.094;13.428;2023-02-28T02:33:41;6.00;1.00;1.00
46044;PMS7003;31781;54.094;13.428;2023-02-28T02:36:01;1.00;1.00;1.00
46044;PMS7003;31781;54.094;13.428;2023-02-28T02:38:08;2.00;2.00;1.00
46044;PMS7003;31781;54.094;13.428;2023-02-28T02:40:19;3.00;3.00;1.00
46044;PMS7003;31781;54.094;13.428;2023-02-28T02:42:24;3.00;3.00;1.00
46044;PMS7003;31781;54.094;13.428;2023-02-28T02:44:30;2.50;2.50;1.00
46044;PMS7003;31781;54.094;13.428;2023-02-28T02:46:39;1.50;1.50;0.75
46044;PMS7003;31781;54.094;13.428;2023-02-28T02:48:44;0.00;0.00;0.00
46044;PMS7003;31781;54.094;13.428;2023-02-28T02:50:50;2.50;2.50;1.50
46044;PMS7003;31781;54.094;13.428;2023-02-28T02:52:55;1.00;1.00;0.50
46044;PMS7003;31781;54.094;13.428;2023-02-28T02:55:01;3.00;3.00;2.50
46044;PMS7003;31781;54.094;13.428;2023-02-28T02:57:05;3.00;3.00;1.00
46044;PMS7003;31781;54.094;13.428;2023-02-28T02:59:10;4.00;4.00;3.00
46044;PMS7003;31781;54.094;13.428;2023-02-28T03:01:16;2.50;2.50;1.00
46044;PMS7003;31781;54.094;13.428;2023-02-28T03:03:22;3.50;3.50;1.00
46044;PMS7003;31781;54.094;13.428;2023-02-28T03:05:25;3.00;3.00;1.50
46044;PMS7003;31781;54.094;13.428;2023-02-28T03:07:31;1.00;1.00;1.00
46044;PMS7003;31781;54.094;13.428;2023-02-28T03:09:33;1.00;1.00;1.00
46044;PMS7003;31781;54.094;13.428;2023-02-28T03:11:36;3.00;3.00;3.00
46044;PMS7003;31781;54.094;13.428;2023-02-28T03:13:48;1.00;1.00;1.00
46044;PMS7003;31781;54.094;13.428;2023-02-28T03:16:12;1.50;1.50;1.00
46044;PMS7003;31781;54.094;13.428;2023-02-28T03:18:25;2.00;2.00;1.00
46044;PMS7003;31781;54.094;13.428;2023-02-28T03:20:35;3.00;3.00;2.50
46044;PMS7003;31781;54.094;13.428;2023-02-28T03:22:51;3.25;3.25;3.00
46044;PMS7003;31781;54.094;13.428;2023-02-28T03:25:04;3.00;3.00;1.00
46044;PMS7003;31781;54.094;13.428;2023-02-28T03:27:11;1.00;1.00;1.00
46044;PMS7003;31781;54.094;13.428;2023-02-28T03:29:19;1.00;1.00;1.00
46044;PMS7003;31781;54.094;13.428;2023-02-28T03:31:30;1.00;1.00;1.00
46044;PMS7003;31781;54.094;13.428;2023-02-28T03:33:38;4.75;2.50;2.00
46044;PMS7003;31781;54.094;13.428;2023-02-28T03:35:47;3.00;1.00;1.00
46044;PMS7003;31781;54.094;13.428;2023-02-28T03:38:03;1.00;1.00;1.00
46044;PMS7003;31781;54.094;13.428;2023-02-28T03:40:10;3.50;3.00;3.00
46044;PMS7003;31781;54.094;13.428;2023-02-28T03:42:15;1.00;1.00;1.00
46044;PMS7003;31781;54.094;13.428;2023-02-28T03:44:22;3.00;3.00;1.00
46044;PMS7003;31781;54.094;13.428;2023-02-28T03:46:30;1.00;1.00;1.00
46044;PMS7003;31781;54.094;13.428;2023-02-28T03:48:38;7.00;1.00;0.75
46044;PMS7003;31781;54.094;13.428;2023-02-28T03:50:45;1.00;1.00;1.00
46044;PMS7003;31781;54.094;13.428;2023-02-28T03:52:52;2.00;2.00;1.00
46044;PMS7003;31781;54.094;13.428;2023-02-28T03:55:00;3.75;3.75;2.00
46044;PMS7003;31781;54.094;13.428;2023-02-28T03:57:05;2.50;0.75;0.75
46044;PMS7003;31781;54.094;13.428;2023-02-28T03:59:16;4.00;2.50;2.50
46044;PMS7003;31781;54.094;13.428;2023-02-28T04:01:25;1.00;1.00;1.00
46044;PMS7003;31781;54.094;13.428;2023-02-28T04:03:32;5.25;3.00;3.00
46044;PMS7003;31781;54.094;13.428;2023-02-28T04:05:39;1.00;1.00;1.00
46044;PMS7003;31781;54.094;13.428;2023-02-28T04:07:49;1.00;1.00;1.00
46044;PMS7003;31781;54.094;13.428;2023-02-28T04:09:53;1.00;1.00;1.00
46044;PMS7003;31781;54.094;13.428;2023-02-28T04:11:54;1.00;1.00;1.00
46044;PMS7003;31781;54.094;13.428;2023-02-28T04:13:56;1.00;1.00;0.75
46044;PMS7003;31781;54.094;13.428;2023-02-28T04:15:58;1.00;1.00;1.00
46044;PMS7003;31781;54.094;13.428;2023-02-28T04:18:00;3.00;3.00;1.00
46044;PMS7003;31781;54.094;13.428;2023-02-28T04:20:01;1.00;1.00;1.00
46044;PMS7003;31781;54.094;13.428;2023-02-28T04:22:03;4.25;2.00;2.00
46044;PMS7003;31781;54.094;13.428;2023-02-28T04:24:05;2.00;2.00;1.00
46044;PMS7003;31781;54.094;13.428;2023-02-28T04:26:08;3.00;3.00;1.00
46044;PMS7003;31781;54.094;13.428;2023-02-28T04:28:10;3.00;3.00;1.00
46044;PMS7003;31781;54.094;13.428;2023-02-28T04:30:12;1.00;1.00;1.00
46044;PMS7003;31781;54.094;13.428;2023-02-28T04:32:13;3.00;3.00;3.00
46044;PMS7003;31781;54.094;13.428;2023-02-28T04:34:16;3.25;1.00;1.00
46044;PMS7003;31781;54.094;13.428;2023-02-28T04:36:17;3.00;3.00;1.00
46044;PMS7003;31781;54.094;13.428;2023-02-28T04:38:19;2.50;2.00;1.00
46044;PMS7003;31781;54.094;13.428;2023-02-28T04:40:21;3.00;3.00;1.00
46044;PMS7003;31781;54.094;13.428;2023-02-28T04:42:24;1.00;1.00;1.00
46044;PMS7003;31781;54.094;13.428;2023-02-28T04:44:26;1.50;1.50;1.00
46044;PMS7003;31781;54.094;13.428;2023-02-28T04:46:28;2.00;2.00;1.00
46044;PMS7003;31781;54.094;13.428;2023-02-28T04:48:30;4.00;2.50;1.00
46044;PMS7003;31781;54.094;13.428;2023-02-28T04:50:33;4.00;4.00;3.00
46044;PMS7003;31781;54.094;13.428;2023-02-28T04:52:35;0.50;0.00;0.00
46044;PMS7003;31781;54.094;13.428;2023-02-28T04:54:36;1.50;1.50;1.00
46044;PMS7003;31781;54.094;13.428;2023-02-28T04:56:38;3.50;2.00;2.00
46044;PMS7003;31781;54.094;13.428;2023-02-28T04:58:41;1.00;1.00;1.00
46044;PMS7003;31781;54.094;13.428;2023-02-28T05:00:43;3.75;3.75;3.00
46044;PMS7003;31781;54.094;13.428;2023-02-28T05:02:45;2.50;1.00;1.00
46044;PMS7003;31781;54.094;13.428;2023-02-28T05:04:46;1.00;1.00;1.00
46044;PMS7003;31781;54.094;13.428;2023-02-28T05:06:48;1.00;1.00;1.00
46044;PMS7003;31781;54.094;13.428;2023-02-28T05:08:50;4.00;2.00;1.50
46044;PMS7003;31781;54.094;13.428;2023-02-28T05:10:52;2.00;2.00;1.00
46044;PMS7003;31781;54.094;13.428;2023-02-28T05:12:53;2.00;2.00;1.00
46044;PMS7003;31781;54.094;13.428;2023-02-28T05:14:57;5.25;3.00;2.50
46044;PMS7003;31781;54.094;13.428;2023-02-28T05:16:59;4.00;2.50;1.00
46044;PMS7003;31781;54.094;13.428;2023-02-28T05:19:00;3.25;1.00;0.75
46044;PMS7003;31781;54.094;13.428;2023-02-28T05:21:02;1.00;1.00;1.00
46044;PMS7003;31781;54.094;13.428;2023-02-28T05:23:04;1.00;1.00;1.00
46044;PMS7003;31781;54.094;13.428;2023-02-28T05:25:06;6.00;6.00;5.50
46044;PMS7003;31781;54.094;13.428;2023-02-28T05:27:11;16.00;10.00;7.50
46044;PMS7003;31781;54.094;13.428;2023-02-28T05:29:13;18.75;16.50;12.50
46044;PMS7003;31781;54.094;13.428;2023-02-28T05:31:16;6.00;6.00;4.00
46044;PMS7003;31781;54.094;13.428;2023-02-28T05:33:18;6.00;3.25;3.00
46044;PMS7003;31781;54.094;13.428;2023-02-28T05:35:20;3.25;3.25;2.00
46044;PMS7003;31781;54.094;13.428;2023-02-28T05:37:21;2.50;2.50;1.00
46044;PMS7003;31781;54.094;13.428;2023-02-28T05:39:23;7.00;3.00;3.00
46044;PMS7003;31781;54.094;13.428;2023-02-28T05:41:25;4.00;4.00;3.00
46044;PMS7003;31781;54.094;13.428;2023-02-28T05:43:26;1.00;1.00;1.00
46044;PMS7003;31781;54.094;13.428;2023-02-28T05:45:28;3.00;3.00;3.00
46044;PMS7003;31781;54.094;13.428;2023-02-28T05:47:31;2.00;2.00;1.00
46044;PMS7003;31781;54.094;13.428;2023-02-28T05:49:33;1.50;1.50;1.00
46044;PMS7003;31781;54.094;13.428;2023-02-28T05:51:34;3.50;1.00;1.00
46044;PMS7003;31781;54.094;13.428;2023-02-28T05:53:36;3.00;3.00;2.00
46044;PMS7003;31781;54.094;13.428;2023-02-28T05:55:38;3.00;3.00;1.00
46044;PMS7003;31781;54.094;13.428;2023-02-28T05:57:40;3.25;1.00;1.00
46044;PMS7003;31781;54.094;13.428;2023-02-28T05:59:41;1.50;1.50;1.00
46044;PMS7003;31781;54.094;13.428;2023-02-28T06:01:43;6.25;4.50;3.25
46044;PMS7003;31781;54.094;13.428;2023-02-28T06:03:48;2.00;2.00;2.00
46044;PMS7003;31781;54.094;13.428;2023-02-28T06:05:49;5.50;3.00;3.00
46044;PMS7003;31781;54.094;13.428;2023-02-28T06:07:51;1.00;1.00;1.00
46044;PMS7003;31781;54.094;13.428;2023-02-28T06:09:53;2.00;2.00;1.00
46044;PMS7003;31781;54.094;13.428;2023-02-28T06:11:54;0.50;0.50;0.50
46044;PMS7003;31781;54.094;13.428;2023-02-28T06:13:58;1.00;1.00;1.00
46044;PMS7003;31781;54.094;13.428;2023-02-28T06:16:01;3.00;3.00;3.00
46044;PMS7003;31781;54.094;13.428;2023-02-28T06:18:03;1.00;1.00;1.00
46044;PMS7003;31781;54.094;13.428;2023-02-28T06:20:07;2.00;1.50;1.00
46044;PMS7003;31781;54.094;13.428;2023-02-28T06:22:10;3.00;1.00;1.00
46044;PMS7003;31781;54.094;13.428;2023-02-28T06:24:12;1.50;1.50;0.75
46044;PMS7003;31781;54.094;13.428;2023-02-28T06:26:14;1.00;1.00;1.00
46044;PMS7003;31781;54.094;13.428;2023-02-28T06:28:15;2.00;2.00;1.00
46044;PMS7003;31781;54.094;13.428;2023-02-28T06:30:17;0.75;0.75;0.50
46044;PMS7003;31781;54.094;13.428;2023-02-28T06:32:19;1.00;1.00;1.00
46044;PMS7003;31781;54.094;13.428;2023-02-28T06:34:21;3.00;3.00;2.00
46044;PMS7003;31781;54.094;13.428;2023-02-28T06:36:24;1.00;1.00;1.00
46044;PMS7003;31781;54.094;13.428;2023-02-28T06:38:26;1.00;1.00;1.00
46044;PMS7003;31781;54.094;13.428;2023-02-28T06:40:28;1.00;1.00;1.00
46044;PMS7003;31781;54.094;13.428;2023-02-28T06:42:29;3.25;3.25;3.00
46044;PMS7003;31781;54.094;13.428;2023-02-28T06:44:31;6.50;3.50;3.00
46044;PMS7003;31781;54.094;13.428;2023-02-28T06:46:32;3.75;3.00;2.00
46044;PMS7003;31781;54.094;13.428;2023-02-28T06:48:34;2.50;2.50;2.50
46044;PMS7003;31781;54.094;13.428;2023-02-28T06:50:36;3.00;3.00;1.00
46044;PMS7003;31781;54.094;13.428;2023-02-28T06:52:39;3.00;3.00;2.50
46044;PMS7003;31781;54.094;13.428;2023-02-28T06:54:41;10.50;8.50;6.75
46044;PMS7003;31781;54.094;13.428;2023-02-28T06:56:42;15.50;10.00;7.00
46044;PMS7003;31781;54.094;13.428;2023-02-28T06:58:45;12.00;9.50;7.00
46044;PMS7003;31781;54.094;13.428;2023-02-28T07:00:50;9.75;7.00;6.00
46044;PMS7003;31781;54.094;13.428;2023-02-28T07:02:52;4.00;4.00;3.00
46044;PMS7003;31781;54.094;13.428;2023-02-28T07:04:54;3.00;3.00;2.00
46044;PMS7003;31781;54.094;13.428;2023-02-28T07:06:55;2.25;1.00;0.25
46044;PMS7003;31781;54.094;13.428;2023-02-28T07:08:59;3.00;3.00;3.00
46044;PMS7003;31781;54.094;13.428;2023-02-28T07:11:00;9.00;5.75;4.00
46044;PMS7003;31781;54.094;13.428;2023-02-28T07:13:06;1.00;1.00;1.00
46044;PMS7003;31781;54.094;13.428;2023-02-28T07:15:09;3.00;3.00;2.75
46044;PMS7003;31781;54.094;13.428;2023-02-28T07:17:12;1.00;1.00;1.00
46044;PMS7003;31781;54.094;13.428;2023-02-28T07:19:13;2.25;2.25;1.00
46044;PMS7003;31781;54.094;13.428;2023-02-28T07:21:15;2.50;1.00;0.50
46044;PMS7003;31781;54.094;13.428;2023-02-28T07:23:17;1.25;1.25;1.25
46044;PMS7003;31781;54.094;13.428;2023-02-28T07:25:21;2.25;2.25;2.00
46044;PMS7003;31781;54.094;13.428;2023-02-28T07:27:23;1.00;1.00;1.00
46044;PMS7003;31781;54.094;13.428;2023-02-28T07:29:28;4.00;1.00;1.00
46044;PMS7003;31781;54.094;13.428;2023-02-28T07:31:30;1.00;1.00;0.25
46044;PMS7003;31781;54.094;13.428;2023-02-28T07:33:33;1.00;1.00;0.00
46044;PMS7003;31781;54.094;13.428;2023-02-28T07:35:35;2.00;0.00;0.00
46044;PMS7003;31781;54.094;13.428;2023-02-28T07:37:36;0.00;0.00;0.00
46044;PMS7003;31781;54.094;13.428;2023-02-28T07:39:38;1.50;1.00;1.00
46044;PMS7003;31781;54.094;13.428;2023-02-28T07:41:41;1.00;1.00;1.00
46044;PMS7003;31781;54.094;13.428;2023-02-28T07:43:43;1.00;1.00;1.00
46044;PMS7003;31781;54.094;13.428;2023-02-28T07:45:45;1.50;1.50;1.00
46044;PMS7003;31781;54.094;13.428;2023-02-28T07:47:46;1.00;1.00;1.00
46044;PMS7003;31781;54.094;13.428;2023-02-28T07:49:48;5.67;1.33;1.00
46044;PMS7003;31781;54.094;13.428;2023-02-28T07:51:50;1.00;1.00;0.50
46044;PMS7003;31781;54.094;13.428;2023-02-28T07:53:51;4.67;2.67;2.00
46044;PMS7003;31781;54.094;13.428;2023-02-28T07:55:54;2.00;2.00;2.00
46044;PMS7003;31781;54.094;13.428;2023-02-28T07:57:58;4.00;4.00;2.67
46044;PMS7003;31781;54.094;13.428;2023-02-28T08:00:00;2.00;2.00;2.00
46044;PMS7003;31781;54.094;13.428;2023-02-28T08:02:02;4.00;4.00;2.00
46044;PMS7003;31781;54.094;13.428;2023-02-28T08:04:04;2.00;2.00;2.00
46044;PMS7003;31781;54.094;13.428;2023-02-28T08:06:06;2.00;2.00;2.00
46044;PMS7003;31781;54.094;13.428;2023-02-28T08:08:10;2.67;2.67;2.00
46044;PMS7003;31781;54.094;13.428;2023-02-28T08:10:11;4.00;1.67;1.00
46044;PMS7003;31781;54.094;13.428;2023-02-28T08:12:13;2.00;2.00;2.00
46044;PMS7003;31781;54.094;13.428;2023-02-28T08:14:16;4.00;4.00;2.00
46044;PMS7003;31781;54.094;13.428;2023-02-28T08:16:17;2.00;2.00;1.33
46044;PMS7003;31781;54.094;13.428;2023-02-28T08:18:19;2.00;2.00;1.33
46044;PMS7003;31781;54.094;13.428;2023-02-28T08:20:21;3.00;3.00;2.00
46044;PMS7003;31781;54.094;13.428;2023-02-28T08:22:23;2.00;2.00;1.00
46044;PMS7003;31781;54.094;13.428;2023-02-28T08:24:25;1.67;1.67;1.67
46044;PMS7003;31781;54.094;13.428;2023-02-28T08:26:27;2.00;2.00;2.00
46044;PMS7003;31781;54.094;13.428;2023-02-28T08:28:29;3.00;1.33;1.00
46044;PMS7003;31781;54.094;13.428;2023-02-28T08:30:33;1.00;1.00;1.00
46044;PMS7003;31781;54.094;13.428;2023-02-28T08:32:34;0.00;0.00;0.00
46044;PMS7003;31781;54.094;13.428;2023-02-28T08:34:38;1.00;1.00;1.00
46044;PMS7003;31781;54.094;13.428;2023-02-28T08:36:40;1.00;1.00;1.00
46044;PMS7003;31781;54.094;13.428;2023-02-28T08:38:42;0.33;0.33;0.00
46044;PMS7003;31781;54.094;13.428;2023-02-28T08:40:44;2.00;2.00;1.33
46044;PMS7003;31781;54.094;13.428;2023-02-28T08:42:46;3.67;2.00;2.00
46044;PMS7003;31781;54.094;13.428;2023-02-28T08:44:49;1.00;1.00;1.00
46044;PMS7003;31781;54.094;13.428;2023-02-28T08:46:53;2.00;2.00;1.00
46044;PMS7003;31781;54.094;13.428;2023-02-28T08:48:55;1.00;1.00;1.00
46044;PMS7003;31781;54.094;13.428;2023-02-28T08:50:58;1.00;1.00;1.00
46044;PMS7003;31781;54.094;13.428;2023-02-28T08:53:08;0.00;0.00;0.00
46044;PMS7003;31781;54.094;13.428;2023-02-28T08:55:09;2.00;2.00;1.00
46044;PMS7003;31781;54.094;13.428;2023-02-28T08:57:11;1.00;1.00;1.00
46044;PMS7003;31781;54.094;13.428;2023-02-28T08:59:13;1.00;1.00;1.00
46044;PMS7003;31781;54.094;13.428;2023-02-28T09:01:15;6.00;1.00;1.00
46044;PMS7003;31781;54.094;13.428;2023-02-28T09:03:19;0.00;0.00;0.00
46044;PMS7003;31781;54.094;13.428;2023-02-28T09:05:23;1.67;1.67;1.00
46044;PMS7003;31781;54.094;13.428;2023-02-28T09:07:25;2.33;1.00;1.00
46044;PMS7003;31781;54.094;13.428;2023-02-28T09:09:27;4.33;1.00;1.00
46044;PMS7003;31781;54.094;13.428;2023-02-28T09:11:29;3.00;2.00;1.00
46044;PMS7003;31781;54.094;13.428;2023-02-28T09:13:31;1.00;1.00;1.00
46044;PMS7003;31781;54.094;13.428;2023-02-28T09:15:33;1.00;1.00;1.00
46044;PMS7003;31781;54.094;13.428;2023-02-28T09:17:35;1.67;1.67;1.00
46044;PMS7003;31781;54.094;13.428;2023-02-28T09:19:38;1.00;1.00;1.00
46044;PMS7003;31781;54.094;13.428;2023-02-28T09:21:40;0.00;0.00;0.00
46044;PMS7003;31781;54.094;13.428;2023-02-28T09:23:42;1.00;1.00;0.50
46044;PMS7003;31781;54.094;13.428;2023-02-28T09:25:45;1.00;1.00;1.00
46044;PMS7003;31781;54.094;13.428;2023-02-28T09:27:47;0.50;0.50;0.50
46044;PMS7003;31781;54.094;13.428;2023-02-28T09:29:49;2.00;0.00;0.00
46044;PMS7003;31781;54.094;13.428;2023-02-28T09:31:51;1.00;1.00;1.00
46044;PMS7003;31781;54.094;13.428;2023-02-28T09:33:56;0.75;0.75;0.50
46044;PMS7003;31781;54.094;13.428;2023-02-28T09:36:02;0.00;0.00;0.00
46044;PMS7003;31781;54.094;13.428;2023-02-28T09:38:05;1.00;1.00;1.00
46044;PMS7003;31781;54.094;13.428;2023-02-28T09:40:07;1.75;0.75;0.75
46044;PMS7003;31781;54.094;13.428;2023-02-28T09:42:13;1.00;1.00;1.00
46044;PMS7003;31781;54.094;13.428;2023-02-28T09:44:24;1.00;1.00;1.00
46044;PMS7003;31781;54.094;13.428;2023-02-28T09:46:32;1.75;1.50;1.25
46044;PMS7003;31781;54.094;13.428;2023-02-28T09:48:39;1.00;1.00;1.00
46044;PMS7003;31781;54.094;13.428;2023-02-28T09:50:46;0.00;0.00;0.00
46044;PMS7003;31781;54.094;13.428;2023-02-28T09:52:52;1.50;0.50;0.25
46044;PMS7003;31781;54.094;13.428;2023-02-28T09:55:18;1.00;1.00;0.00
46044;PMS7003;31781;54.094;13.428;2023-02-28T09:57:24;2.00;0.75;0.00
46044;PMS7003;31781;54.094;13.428;2023-02-28T09:59:39;1.00;1.00;1.00
46044;PMS7003;31781;54.094;13.428;2023-02-28T10:01:51;1.00;1.00;1.00
46044;PMS7003;31781;54.094;13.428;2023-02-28T10:04:00;2.00;2.00;1.00
46044;PMS7003;31781;54.094;13.428;2023-02-28T10:06:11;1.00;1.00;1.00
46044;PMS7003;31781;54.094;13.428;2023-02-28T10:08:21;1.00;1.00;1.00
46044;PMS7003;31781;54.094;13.428;2023-02-28T10:10:27;1.00;1.00;1.00
46044;PMS7003;31781;54.094;13.428;2023-02-28T10:12:34;1.00;1.00;0.00
46044;PMS7003;31781;54.094;13.428;2023-02-28T10:14:43;0.25;0.25;0.00
46044;PMS7003;31781;54.094;13.428;2023-02-28T10:16:49;0.00;0.00;0.00
46044;PMS7003;31781;54.094;13.428;2023-02-28T10:18:54;1.00;1.00;0.75
46044;PMS7003;31781;54.094;13.428;2023-02-28T10:20:58;1.00;1.00;1.00
46044;PMS7003;31781;54.094;13.428;2023-02-28T10:23:02;2.00;1.00;1.00
46044;PMS7003;31781;54.094;13.428;2023-02-28T10:25:16;1.25;1.25;1.00
46044;PMS7003;31781;54.094;13.428;2023-02-28T10:27:21;0.00;0.00;0.00
46044;PMS7003;31781;54.094;13.428;2023-02-28T10:29:24;1.00;1.00;0.25
46044;PMS7003;31781;54.094;13.428;2023-02-28T10:31:26;1.50;0.00;0.00
46044;PMS7003;31781;54.094;13.428;2023-02-28T10:33:28;0.25;0.25;0.25
46044;PMS7003;31781;54.094;13.428;2023-02-28T10:35:32;1.00;1.00;0.25
46044;PMS7003;31781;54.094;13.428;2023-02-28T10:37:36;1.00;1.00;1.00
46044;PMS7003;31781;54.094;13.428;2023-02-28T10:39:40;0.00;0.00;0.00
46044;PMS7003;31781;54.094;13.428;2023-02-28T10:41:44;0.00;0.00;0.00
46044;PMS7003;31781;54.094;13.428;2023-02-28T10:43:46;0.50;0.50;0.50
46044;PMS7003;31781;54.094;13.428;2023-02-28T10:45:52;0.00;0.00;0.00
46044;PMS7003;31781;54.094;13.428;2023-02-28T10:47:58;1.00;1.00;0.75
46044;PMS7003;31781;54.094;13.428;2023-02-28T10:50:02;0.00;0.00;0.00
46044;PMS7003;31781;54.094;13.428;2023-02-28T10:52:04;0.00;0.00;0.00
46044;PMS7003;31781;54.094;13.428;2023-02-28T10:54:16;0.00;0.00;0.00
46044;PMS7003;31781;54.094;13.428;2023-02-28T10:56:22;1.25;1.00;0.00
46044;PMS7003;31781;54.094;13.428;2023-02-28T10:58:27;1.00;1.00;1.00
46044;PMS7003;31781;54.094;13.428;2023-02-28T11:00:31;0.00;0.00;0.00
46044;PMS7003;31781;54.094;13.428;2023-02-28T11:02:36;1.75;0.00;0.00
46044;PMS7003;31781;54.094;13.428;2023-02-28T11:04:38;0.00;0.00;0.00
46044;PMS7003;31781;54.094;13.428;2023-02-28T11:06:40;0.00;0.00;0.00
46044;PMS7003;31781;54.094;13.428;2023-02-28T11:08:45;0.00;0.00;0.00
46044;PMS7003;31781;54.094;13.428;2023-02-28T11:10:53;0.00;0.00;0.00
46044;PMS7003;31781;54.094;13.428;2023-02-28T11:12:57;0.00;0.00;0.00
46044;PMS7003;31781;54.094;13.428;2023-02-28T11:15:04;0.00;0.00;0.00
46044;PMS7003;31781;54.094;13.428;2023-02-28T11:17:20;0.00;0.00;0.00
46044;PMS7003;31781;54.094;13.428;2023-02-28T11:19:24;0.00;0.00;0.00
46044;PMS7003;31781;54.094;13.428;2023-02-28T11:21:29;0.00;0.00;0.00
46044;PMS7003;31781;54.094;13.428;2023-02-28T11:23:33;0.50;0.50;0.00
46044;PMS7003;31781;54.094;13.428;2023-02-28T11:25:38;0.00;0.00;0.00
46044;PMS7003;31781;54.094;13.428;2023-02-28T11:27:42;0.50;0.00;0.00
46044;PMS7003;31781;54.094;13.428;2023-02-28T11:29:47;0.00;0.00;0.00
46044;PMS7003;31781;54.094;13.428;2023-02-28T11:32:03;0.00;0.00;0.00
46044;PMS7003;31781;54.094;13.428;2023-02-28T11:34:23;0.00;0.00;0.00
46044;PMS7003;31781;54.094;13.428;2023-02-28T11:36:27;0.00;0.00;0.00
46044;PMS7003;31781;54.094;13.428;2023-02-28T11:38:31;0.50;0.00;0.00
46044;PMS7003;31781;54.094;13.428;2023-02-28T11:40:38;0.00;0.00;0.00
46044;PMS7003;31781;54.094;13.428;2023-02-28T11:42:47;0.00;0.00;0.00
46044;PMS7003;31781;54.094;13.428;2023-02-28T11:44:59;0.00;0.00;0.00
46044;PMS7003;31781;54.094;13.428;2023-02-28T11:47:13;0.00;0.00;0.00
46044;PMS7003;31781;54.094;13.428;2023-02-28T11:49:25;0.00;0.00;0.00
46044;PMS7003;31781;54.094;13.428;2023-02-28T11:51:34;0.00;0.00;0.00
46044;PMS7003;31781;54.094;13.428;2023-02-28T11:53:47;0.00;0.00;0.00
46044;PMS7003;31781;54.094;13.428;2023-02-28T11:55:58;0.00;0.00;0.00
46044;PMS7003;31781;54.094;13.428;2023-02-28T12:00:43;1.00;0.00;0.00
46044;PMS7003;31781;54.094;13.428;2023-02-28T12:03:02;0.75;0.75;0.00